createdAt,value
2022-08-07T00:02:37.292Z,2.77
2022-08-07T00:07:27.793Z,1.47
2022-08-07T00:12:34.734Z,1.25
2022-08-07T00:17:41.655Z,3.12
2022-08-07T00:22:51.828Z,3.25
2022-08-07T00:33:03.350Z,3.06
2022-08-07T00:38:10.309Z,1.28
2022-08-07T00:44:01.217Z,0.76
2022-08-07T00:48:25.071Z,1.05
2022-08-07T00:53:38.555Z,2.54
2022-08-07T00:58:38.445Z,4.35
2022-08-07T01:03:57.091Z,2.40
2022-08-07T01:08:55.518Z,2.16
2022-08-07T01:14:00.095Z,1.16
2022-08-07T01:19:10.960Z,1.52
2022-08-07T01:24:13.978Z,1.78
2022-08-07T01:29:22.093Z,1.70
2022-08-07T01:34:30.706Z,0.93
2022-08-07T01:39:40.847Z,1.88
2022-08-07T01:44:42.487Z,2.24
2022-08-07T01:49:49.474Z,1.92
2022-08-07T01:54:56.556Z,1.37
2022-08-07T02:00:03.511Z,1.00
2022-08-07T02:05:15.829Z,1.60
2022-08-07T02:10:17.879Z,3.68
2022-08-07T02:15:26.391Z,2.37
2022-08-07T02:20:31.758Z,2.35
2022-08-07T02:26:26.653Z,2.55
2022-08-07T02:30:46.296Z,2.59
2022-08-07T02:36:30.963Z,3.86
2022-08-07T02:41:00.206Z,3.31
2022-08-07T02:46:07.663Z,4.01
2022-08-07T02:51:41.743Z,3.04
2022-08-07T02:56:21.958Z,3.64
2022-08-07T03:01:35.922Z,3.72
2022-08-07T03:06:35.574Z,4.26
2022-08-07T03:11:51.596Z,4.81
2022-08-07T03:16:50.141Z,4.42
2022-08-07T03:21:57.136Z,2.68
2022-08-07T03:27:04.333Z,2.91
2022-08-07T03:32:12.804Z,0.56
2022-08-07T03:37:18.500Z,1.42
2022-08-07T03:42:25.772Z,2.50
2022-08-07T03:52:40.774Z,3.19
2022-08-07T03:58:32.707Z,1.45
2022-08-07T04:02:56.017Z,0.71
2022-08-07T04:08:00.910Z,1.15
2022-08-07T04:13:08.026Z,2.64
2022-08-07T04:18:58.619Z,1.49
2022-08-07T04:23:22.003Z,1.13
2022-08-07T04:28:28.944Z,1.49
2022-08-07T04:33:36.633Z,1.43
2022-08-07T04:38:43.839Z,0.94
2022-08-07T04:44:12.419Z,1.68
2022-08-07T04:48:57.737Z,1.24
2022-08-07T04:54:06.342Z,0.67
2022-08-07T05:00:12.344Z,1.13
2022-08-07T05:04:18.653Z,2.94
2022-08-07T05:09:43.121Z,2.61
2022-08-07T05:14:52.045Z,2.46
2022-08-07T05:19:45.026Z,2.39
2022-08-07T05:24:47.295Z,1.01
2022-08-07T05:29:54.275Z,1.29
2022-08-07T05:35:02.204Z,3.29
2022-08-07T05:40:19.114Z,2.42
2022-08-07T05:45:46.196Z,4.87
2022-08-07T05:50:22.808Z,4.95
2022-08-07T05:56:01.938Z,1.91
2022-08-07T06:00:37.193Z,4.05
2022-08-07T06:05:49.154Z,2.96
2022-08-07T06:10:54.876Z,3.71
2022-08-07T06:15:58.253Z,3.94
2022-08-07T06:22:15.600Z,4.53
2022-08-07T06:26:12.692Z,6.58
2022-08-07T06:31:19.565Z,7.51
2022-08-07T06:36:35.027Z,5.28
2022-08-07T06:42:00.598Z,6.14
2022-08-07T06:46:41.131Z,6.43
2022-08-07T06:51:50.018Z,8.64
2022-08-07T06:56:55.611Z,8.64
2022-08-07T07:02:03.684Z,5.92
2022-08-07T07:12:24.659Z,7.73
2022-08-07T07:17:24.032Z,6.74
2022-08-07T07:22:35.971Z,6.29
2022-08-07T07:27:56.266Z,4.92
2022-08-07T07:32:45.570Z,10.50
2022-08-07T07:38:02.437Z,6.72
2022-08-07T07:43:11.709Z,7.11
2022-08-07T07:48:07.066Z,6.80
2022-08-07T07:53:22.922Z,2.96
2022-08-07T07:58:20.981Z,4.09
2022-08-07T08:04:06.481Z,5.18
2022-08-07T08:08:36.861Z,6.08
2022-08-07T08:13:54.070Z,4.71
2022-08-07T08:18:50.476Z,6.51
2022-08-07T08:23:56.647Z,2.85
2022-08-07T08:29:04.102Z,6.92
2022-08-07T08:34:12.479Z,5.97
2022-08-07T08:39:18.508Z,8.66
2022-08-07T08:44:29.448Z,9.08
2022-08-07T08:49:46.259Z,3.53
2022-08-07T08:54:40.054Z,6.34
2022-08-07T08:59:48.179Z,6.87
2022-08-07T09:04:54.092Z,7.52
2022-08-07T09:10:03.210Z,8.32
2022-08-07T09:16:21.759Z,5.84
2022-08-07T09:20:35.182Z,4.47
2022-08-07T09:25:24.417Z,6.26
2022-08-07T09:30:29.689Z,4.97
2022-08-07T09:36:05.013Z,5.43
2022-08-07T09:40:44.095Z,6.34
2022-08-07T09:47:25.193Z,4.14
2022-08-07T09:50:59.550Z,5.18
2022-08-07T09:56:05.548Z,5.32
2022-08-07T10:01:14.867Z,2.62
2022-08-07T10:06:19.989Z,2.97
2022-08-07T10:12:03.127Z,3.66
2022-08-07T10:16:34.272Z,3.38
2022-08-07T10:22:12.592Z,4.95
2022-08-07T10:26:52.921Z,2.23
2022-08-07T10:31:55.632Z,2.88
2022-08-07T10:37:03.971Z,2.97
2022-08-07T10:42:21.203Z,2.40
2022-08-07T10:47:17.146Z,3.48
2022-08-07T10:52:31.820Z,6.05
2022-08-07T10:57:34.315Z,4.62
2022-08-07T11:02:38.770Z,11.74
2022-08-07T11:07:59.662Z,7.63
2022-08-07T11:13:01.545Z,1.98
2022-08-07T11:18:03.564Z,1.49
2022-08-07T11:23:07.339Z,2.65
2022-08-07T11:28:15.468Z,3.16
2022-08-07T11:33:53.710Z,2.77
2022-08-07T11:38:28.535Z,3.63
2022-08-07T11:43:54.229Z,2.84
2022-08-07T11:48:58.763Z,2.12
2022-08-07T11:54:00.780Z,3.19
2022-08-07T11:58:57.269Z,6.87
2022-08-07T12:04:04.291Z,3.43
2022-08-07T12:09:16.419Z,5.21
2022-08-07T12:14:19.331Z,4.92
2022-08-07T12:19:25.736Z,5.03
2022-08-07T12:24:37.359Z,4.51
2022-08-07T12:29:40.523Z,5.28
2022-08-07T12:34:53.123Z,3.92
2022-08-07T12:39:54.328Z,6.02
2022-08-07T12:45:05.918Z,5.67
2022-08-07T12:50:34.372Z,5.12
2022-08-07T12:55:16.503Z,5.94
2022-08-07T13:00:32.677Z,5.89
2022-08-07T13:06:04.452Z,3.98
2022-08-07T13:15:44.968Z,6.42
2022-08-07T13:20:52.024Z,6.64
2022-08-07T13:26:00.897Z,8.49
2022-08-07T13:31:13.117Z,7.43
2022-08-07T13:36:17.718Z,6.00
2022-08-07T13:41:20.611Z,7.94
2022-08-07T13:46:31.393Z,10.14
2022-08-07T13:52:05.417Z,6.08
2022-08-07T13:56:51.665Z,9.10
2022-08-07T14:01:51.338Z,7.65
2022-08-07T14:06:56.577Z,7.11
2022-08-07T14:12:04.810Z,5.28
2022-08-07T14:17:32.501Z,3.66
2022-08-07T14:22:34.716Z,2.36
2022-08-07T14:28:10.780Z,3.46
2022-08-07T14:32:31.815Z,1.41
2022-08-07T14:37:39.997Z,2.89
2022-08-07T14:43:00.768Z,4.72
2022-08-07T14:47:58.712Z,5.55
2022-08-07T14:53:08.004Z,2.05
2022-08-07T14:58:07.862Z,2.26
2022-08-07T15:03:19.554Z,0.43
2022-08-07T15:08:22.263Z,0.55
2022-08-07T15:13:36.789Z,4.43
2022-08-07T15:18:36.377Z,4.78
2022-08-07T15:25:02.886Z,4.81
2022-08-07T15:28:56.703Z,7.09
2022-08-07T15:33:57.907Z,4.19
2022-08-07T15:39:05.035Z,5.12
2022-08-07T15:44:11.855Z,5.61
2022-08-07T15:49:19.426Z,8.32
2022-08-07T15:54:26.558Z,6.84
2022-08-07T15:59:39.889Z,4.55
2022-08-07T16:04:40.657Z,5.61
2022-08-07T16:09:47.770Z,2.80
2022-08-07T16:14:54.717Z,3.21
2022-08-07T16:20:02.865Z,4.30
2022-08-07T16:25:09.076Z,3.80
2022-08-07T16:30:30.317Z,2.81
2022-08-07T16:35:56.698Z,4.53
2022-08-07T16:40:30.830Z,3.08
2022-08-07T16:46:33.209Z,4.39
2022-08-07T16:51:13.383Z,3.21
2022-08-07T16:55:51.766Z,1.87
2022-08-07T17:00:58.738Z,3.30
2022-08-07T17:06:29.676Z,6.39
2022-08-07T17:11:14.401Z,7.48
2022-08-07T17:16:20.315Z,10.96
2022-08-07T17:21:27.550Z,7.34
2022-08-07T17:26:35.857Z,4.90
2022-08-07T17:31:43.983Z,10.19
2022-08-07T17:36:57.766Z,7.84
2022-08-07T17:42:03.878Z,7.86
2022-08-07T17:47:03.001Z,5.58
2022-08-07T17:52:10.624Z,5.96
2022-08-07T17:57:19.291Z,4.79
2022-08-07T18:02:24.265Z,6.17
2022-08-07T18:07:34.162Z,6.84
2022-08-07T18:12:38.489Z,5.65
2022-08-07T18:18:44.852Z,6.55
2022-08-07T18:22:52.910Z,4.97
2022-08-07T18:27:59.877Z,8.02
2022-08-07T18:33:12.206Z,7.40
2022-08-07T18:38:55.628Z,4.45
2022-08-07T18:43:37.135Z,6.40
2022-08-07T18:49:03.639Z,5.88
2022-08-07T18:53:39.373Z,7.35
2022-08-07T18:58:42.515Z,7.60
2022-08-07T19:03:49.734Z,6.75
2022-08-07T19:08:57.001Z,6.64
2022-08-07T19:14:07.999Z,5.07
2022-08-07T19:19:13.154Z,3.96
2022-08-07T19:24:30.630Z,5.96
2022-08-07T19:31:03.822Z,6.06
2022-08-07T19:34:32.705Z,6.76
2022-08-07T19:39:57.008Z,7.19
2022-08-07T19:44:46.640Z,4.08
2022-08-07T19:49:56.667Z,4.39
2022-08-07T19:55:00.567Z,3.03
2022-08-07T20:00:08.771Z,0.68
2022-08-07T20:05:14.791Z,2.94
2022-08-07T20:10:36.968Z,3.16
2022-08-07T20:15:32.824Z,4.43
2022-08-07T20:20:36.177Z,1.60
2022-08-07T20:25:51.045Z,3.14
2022-08-07T20:30:50.590Z,3.53
2022-08-07T20:36:03.332Z,3.75
2022-08-07T20:41:05.501Z,3.24
2022-08-07T20:46:25.666Z,4.30
2022-08-07T20:51:19.259Z,3.86
2022-08-07T20:56:26.564Z,5.27
2022-08-07T21:01:45.402Z,3.47
2022-08-07T21:06:46.656Z,2.04
2022-08-07T21:11:51.604Z,1.22
2022-08-07T21:16:56.850Z,2.48
2022-08-07T21:22:01.543Z,2.75
2022-08-07T21:27:08.531Z,1.86
2022-08-07T21:32:46.685Z,1.72
2022-08-07T21:37:22.776Z,2.58
2022-08-07T21:42:42.828Z,3.40
2022-08-07T21:47:37.067Z,2.70
2022-08-07T21:52:44.156Z,3.29
2022-08-07T21:57:52.585Z,4.24
2022-08-07T22:02:58.060Z,2.88
2022-08-07T22:08:05.575Z,1.98
2022-08-07T22:13:12.518Z,1.57
2022-08-07T22:18:19.611Z,2.71
2022-08-07T22:23:26.844Z,3.79
2022-08-07T22:28:33.835Z,1.72
2022-08-07T22:33:56.636Z,1.03
2022-08-07T22:38:48.269Z,0.41
2022-08-07T22:43:56.295Z,0.59
2022-08-07T22:49:07.680Z,1.54
2022-08-07T22:54:09.420Z,2.80
2022-08-07T22:59:16.183Z,2.17
2022-08-07T23:04:30.098Z,0.75
2022-08-07T23:10:04.904Z,3.72
2022-08-07T23:14:37.636Z,3.59
2022-08-07T23:19:51.458Z,3.66
2022-08-07T23:24:51.542Z,3.27
2022-08-07T23:30:37.671Z,3.04
2022-08-07T23:35:06.283Z,2.71
2022-08-07T23:40:13.330Z,3.03
2022-08-07T23:45:50.129Z,2.91
2022-08-07T23:50:27.139Z,3.30
2022-08-07T23:55:53.477Z,2.34
